Time;durP1;ratioP1;P1;durP2;ratioP2;P2;SDS_P1;SDS_P2;PMS_P1;PMS_P2;Temp;Humidity;BMP_temperature;BMP_pressure;BME280_temperature;BME280_humidity;BME280_pressure;Samples;Min_cycle;Max_cycle;Signal;HPM_P1;HPM_P2
2022/07/09 00:01:56;;;;;;;5.88;1.58;;;;;;;16.92;100.00;102337.38;5127763;27;20123;-85
2022/07/09 00:04:23;;;;;;;6.85;1.60;;;;;;;16.81;100.00;102352.78;5132003;27;20047;-85
2022/07/09 00:06:49;;;;;;;7.05;1.60;;;;;;;16.49;100.00;102326.63;5100822;27;20053;-85
2022/07/09 00:09:16;;;;;;;5.68;1.60;;;;;;;16.92;100.00;102377.06;5115654;27;20065;-85
2022/07/09 00:11:43;;;;;;;4.47;1.35;;;;;;;16.64;100.00;102362.22;5112729;27;20050;-85
2022/07/09 00:14:10;;;;;;;3.70;1.23;;;;;;;16.48;100.00;102346.06;5079722;28;20058;-85
2022/07/09 00:16:36;;;;;;;7.40;1.60;;;;;;;16.67;100.00;102361.22;5093890;28;20044;-85
2022/07/09 00:19:04;;;;;;;6.72;1.42;;;;;;;16.80;100.00;102336.06;5098229;27;20047;-84
2022/07/09 00:21:30;;;;;;;4.78;1.40;;;;;;;16.89;100.00;102327.78;5122024;27;20090;-85
2022/07/09 00:23:57;;;;;;;3.58;1.23;;;;;;;17.17;100.00;102374.31;5111866;28;20056;-85
2022/07/09 00:26:24;;;;;;;9.27;1.83;;;;;;;17.15;100.00;102359.44;5103439;27;20134;-85
2022/07/09 00:28:51;;;;;;;4.32;1.15;;;;;;;17.35;100.00;102380.69;5120851;27;20142;-85
2022/07/09 00:31:17;;;;;;;6.00;1.40;;;;;;;17.12;100.00;102348.97;5115717;27;20039;-85
2022/07/09 00:33:44;;;;;;;9.50;1.65;;;;;;;17.38;100.00;102363.81;5108578;28;20046;-85
2022/07/09 00:36:11;;;;;;;5.90;1.40;;;;;;;17.17;100.00;102361.09;5098524;28;20044;-85
2022/07/09 00:38:38;;;;;;;4.10;1.20;;;;;;;17.50;100.00;102378.34;5102740;28;20423;-85
2022/07/09 00:41:05;;;;;;;3.03;1.20;;;;;;;17.36;100.00;102349.78;5114692;27;20050;-85
2022/07/09 00:43:32;;;;;;;9.27;1.83;;;;;;;17.26;100.00;102355.44;5111203;27;20377;-85
2022/07/09 00:45:58;;;;;;;4.45;1.30;;;;;;;17.37;100.00;102348.84;5132079;27;20053;-85
2022/07/09 00:48:25;;;;;;;5.10;1.10;;;;;;;17.50;100.00;102375.69;5099360;28;20048;-85
2022/07/09 00:50:54;;;;;;;4.70;1.30;;;;;;;17.19;100.00;102369.84;5103140;28;20044;-85
2022/07/09 00:53:25;;;;;;;4.13;1.20;;;;;;;17.19;100.00;102376.91;5098066;28;20065;-85
2022/07/09 00:55:53;;;;;;;3.88;1.13;;;;;;;16.82;100.00;102347.44;5105164;28;20397;-85
2022/07/09 00:58:21;;;;;;;4.72;1.20;;;;;;;16.87;100.00;102363.16;5108253;28;20051;-85
2022/07/09 01:00:47;;;;;;;3.38;1.20;;;;;;;16.95;100.00;102370.81;5093434;28;20126;-85
2022/07/09 01:03:14;;;;;;;3.55;1.10;;;;;;;16.96;100.00;102365.44;5125083;28;20483;-85
2022/07/09 01:05:41;;;;;;;2.63;1.00;;;;;;;17.01;100.00;102337.00;5114172;28;20491;-85
2022/07/09 01:08:08;;;;;;;4.50;1.55;;;;;;;17.13;100.00;102356.00;5101850;28;20058;-85
2022/07/09 01:10:36;;;;;;;5.63;1.25;;;;;;;17.01;100.00;102346.75;5126694;28;20039;-85
2022/07/09 01:13:04;;;;;;;8.90;1.38;;;;;;;17.17;100.00;102360.22;5094436;28;20473;-85
2022/07/09 01:15:31;;;;;;;4.95;1.33;;;;;;;16.98;100.00;102360.97;5110628;28;20050;-85
2022/07/09 01:17:58;;;;;;;5.45;1.58;;;;;;;16.85;100.00;102354.41;5104995;28;20416;-85
2022/07/09 01:20:26;;;;;;;6.55;1.85;;;;;;;17.09;100.00;102365.84;5126230;28;20043;-85
2022/07/09 01:22:53;;;;;;;3.97;1.35;;;;;;;17.19;99.44;102353.97;5116391;28;20047;-85
2022/07/09 01:25:27;;;;;;;6.75;1.60;;;;;;;17.26;98.78;102344.88;5114184;28;20492;-85
2022/07/09 01:27:54;;;;;;;5.25;1.30;;;;;;;17.00;99.15;102332.66;5115164;28;20126;-85
2022/07/09 01:30:26;;;;;;;6.53;1.48;;;;;;;17.04;98.90;102359.88;5114409;28;20057;-85
2022/07/09 01:32:54;;;;;;;4.47;1.38;;;;;;;16.88;100.00;102351.66;5124880;28;20127;-85
2022/07/09 01:35:24;;;;;;;3.70;1.10;;;;;;;16.64;100.00;102361.34;5118856;28;20054;-85
2022/07/09 01:37:51;;;;;;;4.80;1.23;;;;;;;16.67;100.00;102343.56;5112411;28;20062;-85
2022/07/09 01:40:17;;;;;;;5.70;1.40;;;;;;;16.70;100.00;102347.91;5124083;28;20048;-85
2022/07/09 01:42:44;;;;;;;5.82;1.48;;;;;;;16.36;100.00;102303.34;5086972;28;20059;-84
2022/07/09 01:45:11;;;;;;;4.68;1.25;;;;;;;16.86;100.00;102345.56;5101299;27;20047;-85
2022/07/09 01:47:38;;;;;;;4.22;1.30;;;;;;;16.63;100.00;102317.31;5117874;27;20055;-85
2022/07/09 01:50:06;;;;;;;2.78;1.00;;;;;;;16.99;100.00;102344.16;5098939;28;20054;-85
2022/07/09 01:52:33;;;;;;;4.53;1.45;;;;;;;16.81;100.00;102345.69;5098606;28;20044;-85
2022/07/09 01:55:00;;;;;;;3.88;1.10;;;;;;;16.81;100.00;102372.16;5096816;28;20058;-85
2022/07/09 01:57:27;;;;;;;2.80;1.00;;;;;;;16.93;100.00;102360.28;5106033;27;20045;-85
2022/07/09 01:59:54;;;;;;;5.13;1.15;;;;;;;16.70;100.00;102348.75;5103697;27;20052;-85
2022/07/09 02:02:20;;;;;;;4.97;1.20;;;;;;;16.88;100.00;102347.22;5110973;28;20176;-85
2022/07/09 02:04:47;;;;;;;3.72;1.20;;;;;;;16.83;100.00;102348.28;5110269;27;20051;-85
2022/07/09 02:07:14;;;;;;;3.42;1.27;;;;;;;16.80;100.00;102351.94;5102086;27;20070;-85
2022/07/09 02:09:41;;;;;;;7.68;1.80;;;;;;;16.80;100.00;102359.88;5135635;27;20405;-85
2022/07/09 02:12:08;;;;;;;3.00;1.20;;;;;;;16.63;100.00;102339.34;5096970;28;20053;-85
2022/07/09 02:14:35;;;;;;;4.15;1.33;;;;;;;16.25;100.00;102349.50;5106401;27;20043;-85
2022/07/09 02:17:03;;;;;;;3.70;1.20;;;;;;;16.26;100.00;102353.03;5116833;27;20066;-85
2022/07/09 02:19:30;;;;;;;5.45;1.33;;;;;;;16.14;100.00;102356.97;5116546;27;20100;-85
2022/07/09 02:21:57;;;;;;;4.60;1.42;;;;;;;16.30;100.00;102365.22;5113344;28;20873;-85
2022/07/09 02:24:24;;;;;;;3.72;1.35;;;;;;;16.08;100.00;102347.50;5096648;28;20047;-85
2022/07/09 02:26:50;;;;;;;5.28;1.30;;;;;;;16.24;100.00;102354.88;5109012;27;20045;-85
2022/07/09 02:29:17;;;;;;;3.53;1.27;;;;;;;16.13;100.00;102357.91;5135501;27;20047;-85
2022/07/09 02:31:44;;;;;;;4.45;1.27;;;;;;;16.16;100.00;102349.84;5114993;27;20043;-84
2022/07/09 02:34:10;;;;;;;4.47;1.20;;;;;;;16.31;100.00;102367.81;5103660;28;20051;-85
2022/07/09 02:36:37;;;;;;;6.63;1.35;;;;;;;16.29;100.00;102351.16;5101528;27;20131;-85
2022/07/09 02:39:04;;;;;;;5.70;1.25;;;;;;;16.31;100.00;102349.31;5135383;27;20050;-85
2022/07/09 02:41:31;;;;;;;5.65;1.40;;;;;;;16.24;100.00;102344.31;5110622;27;20046;-85
2022/07/09 02:43:57;;;;;;;4.10;1.23;;;;;;;16.42;100.00;102364.78;5095914;28;20047;-85
2022/07/09 02:46:24;;;;;;;4.15;1.13;;;;;;;16.13;100.00;102323.56;5098429;28;20050;-85
2022/07/09 02:48:51;;;;;;;4.40;1.10;;;;;;;16.30;100.00;102354.66;5095849;28;20051;-85
2022/07/09 02:51:18;;;;;;;6.03;1.25;;;;;;;16.27;100.00;102360.91;5096112;28;20048;-85
2022/07/09 02:53:45;;;;;;;1.83;1.00;;;;;;;15.91;100.00;102368.34;5085019;28;20052;-84
2022/07/09 02:56:11;;;;;;;6.82;1.55;;;;;;;15.85;100.00;102371.19;5112848;28;20043;-85
2022/07/09 02:58:38;;;;;;;7.28;1.38;;;;;;;15.77;100.00;102370.59;5096424;28;20516;-85
2022/07/09 03:01:05;;;;;;;5.57;1.30;;;;;;;15.67;100.00;102347.09;5096398;28;20047;-84
2022/07/09 03:03:36;;;;;;;4.70;1.58;;;;;;;15.68;100.00;102356.72;5110855;27;20067;-85
2022/07/09 03:06:04;;;;;;;7.00;1.20;;;;;;;15.82;100.00;102371.28;5098236;28;20047;-85
2022/07/09 03:08:31;;;;;;;4.15;1.33;;;;;;;15.68;100.00;102348.81;5095948;28;20052;-85
2022/07/09 03:10:58;;;;;;;4.10;1.17;;;;;;;15.72;100.00;102345.16;5096099;28;20696;-85
2022/07/09 03:13:25;;;;;;;5.38;1.30;;;;;;;15.67;100.00;102360.31;5114034;28;20491;-85
2022/07/09 03:15:51;;;;;;;2.42;0.93;;;;;;;15.78;100.00;102359.97;5095687;28;20051;-85
2022/07/09 03:18:18;;;;;;;2.95;1.00;;;;;;;15.63;100.00;102377.13;5095118;28;20048;-85
2022/07/09 03:20:47;;;;;;;2.80;1.00;;;;;;;15.86;100.00;102381.69;5095239;28;20058;-86
2022/07/09 03:23:14;;;;;;;6.68;1.27;;;;;;;15.73;100.00;102381.22;5095064;28;20378;-85
2022/07/09 03:25:41;;;;;;;5.53;1.20;;;;;;;15.68;100.00;102374.34;5095160;28;20047;-85
2022/07/09 03:28:07;;;;;;;5.25;1.15;;;;;;;15.77;100.00;102373.22;5094967;28;20524;-85
2022/07/09 03:30:34;;;;;;;3.92;1.02;;;;;;;15.47;100.00;102357.44;5112832;28;20055;-85
2022/07/09 03:33:01;;;;;;;2.75;1.30;;;;;;;15.67;100.00;102354.13;5095003;28;20496;-85
2022/07/09 03:35:28;;;;;;;3.20;1.20;;;;;;;15.67;100.00;102339.19;5096177;28;20044;-85
2022/07/09 03:37:55;;;;;;;4.80;1.00;;;;;;;15.83;100.00;102392.38;5112768;28;20044;-85
2022/07/09 03:40:22;;;;;;;4.50;1.00;;;;;;;15.96;100.00;102400.75;5094766;28;20039;-85
2022/07/09 03:42:48;;;;;;;3.55;1.23;;;;;;;15.52;100.00;102388.03;5113357;28;20048;-85
2022/07/09 03:45:15;;;;;;;3.40;1.10;;;;;;;15.67;100.00;102386.69;5112832;28;20047;-85
2022/07/09 03:47:42;;;;;;;4.30;1.30;;;;;;;15.68;100.00;102388.41;5095536;28;20043;-85
2022/07/09 03:50:09;;;;;;;2.50;1.00;;;;;;;15.82;100.00;102395.91;5095857;28;20108;-85
2022/07/09 03:52:35;;;;;;;4.10;1.10;;;;;;;16.00;100.00;102399.72;5093293;28;20044;-85
2022/07/09 03:55:02;;;;;;;2.67;0.90;;;;;;;16.06;100.00;102386.31;5112717;28;20047;-85
2022/07/09 03:57:29;;;;;;;2.67;0.90;;;;;;;15.91;100.00;102386.81;5094852;28;20066;-85
2022/07/09 03:59:56;;;;;;;2.67;1.02;;;;;;;16.11;100.00;102399.34;5113328;28;20058;-85
2022/07/09 04:02:23;;;;;;;2.72;1.10;;;;;;;16.06;100.00;102394.25;5096028;28;20493;-84
2022/07/09 04:04:50;;;;;;;4.90;1.10;;;;;;;15.99;100.00;102398.00;5112738;28;20040;-84
2022/07/09 04:07:16;;;;;;;2.30;0.90;;;;;;;15.98;100.00;102374.28;5094066;28;20127;-84
2022/07/09 04:09:43;;;;;;;4.55;1.23;;;;;;;15.97;100.00;102398.97;5113608;28;20044;-85
2022/07/09 04:12:10;;;;;;;3.90;1.10;;;;;;;15.83;100.00;102405.59;5094475;28;20047;-84
2022/07/09 04:14:37;;;;;;;4.03;1.20;;;;;;;15.87;100.00;102398.41;5112704;28;20130;-85
2022/07/09 04:17:04;;;;;;;2.30;0.95;;;;;;;15.82;100.00;102377.44;5094720;28;20590;-85
2022/07/09 04:19:30;;;;;;;6.03;1.08;;;;;;;15.87;100.00;102380.78;5094243;28;20051;-84
2022/07/09 04:21:57;;;;;;;6.30;1.20;;;;;;;15.58;100.00;102389.63;5093990;28;20047;-84
2022/07/09 04:24:24;;;;;;;3.58;0.95;;;;;;;15.86;100.00;102388.75;5111884;28;20040;-84
2022/07/09 04:26:51;;;;;;;3.10;0.90;;;;;;;15.83;100.00;102402.94;5112334;28;20084;-84
2022/07/09 04:29:17;;;;;;;3.83;1.00;;;;;;;15.88;100.00;102402.78;5094851;28;20054;-85
2022/07/09 04:31:44;;;;;;;3.58;1.00;;;;;;;15.77;100.00;102374.06;5094913;28;20043;-85
2022/07/09 04:34:11;;;;;;;2.97;1.10;;;;;;;15.91;100.00;102392.09;5119027;27;20059;-85
2022/07/09 04:36:37;;;;;;;2.35;0.82;;;;;;;16.17;100.00;102404.44;5079927;28;20050;-85
2022/07/09 04:39:04;;;;;;;4.22;1.13;;;;;;;16.16;100.00;102401.84;5094105;28;20089;-85
2022/07/09 04:41:31;;;;;;;3.20;0.93;;;;;;;16.07;100.00;102418.88;5112077;28;20054;-85
2022/07/09 04:43:58;;;;;;;3.03;1.00;;;;;;;15.87;100.00;102370.22;5094197;28;20499;-85
2022/07/09 04:46:26;;;;;;;2.95;1.08;;;;;;;16.08;100.00;102395.03;5094696;28;20039;-85
2022/07/09 04:48:53;;;;;;;4.72;1.20;;;;;;;16.07;100.00;102390.66;5108640;28;20394;-84
2022/07/09 04:51:20;;;;;;;2.70;0.90;;;;;;;16.17;100.00;102400.94;5093413;28;20051;-85
2022/07/09 04:53:47;;;;;;;2.17;1.00;;;;;;;16.17;100.00;102393.00;5092393;28;20050;-85
2022/07/09 04:56:14;;;;;;;3.20;1.08;;;;;;;16.17;100.00;102406.22;5094565;28;20051;-84
2022/07/09 04:58:51;;;;;;;2.50;1.20;;;;;;;16.26;100.00;102409.41;5093936;28;20436;-84
2022/07/09 05:01:22;;;;;;;4.50;1.30;;;;;;;16.18;100.00;102413.22;5094117;28;20055;-85
2022/07/09 05:03:49;;;;;;;3.25;1.00;;;;;;;15.91;100.00;102402.66;5094984;28;20051;-86
2022/07/09 05:06:17;;;;;;;3.70;1.20;;;;;;;15.94;100.00;102395.50;5094155;28;20051;-84
2022/07/09 05:08:44;;;;;;;2.47;0.93;;;;;;;16.08;100.00;102404.75;5093384;28;20047;-85
2022/07/09 05:11:11;;;;;;;4.45;1.13;;;;;;;16.10;100.00;102408.22;5093927;28;20500;-84
2022/07/09 05:13:45;;;;;;;3.20;1.02;;;;;;;15.88;100.00;102377.25;5111399;28;20048;-85
2022/07/09 05:16:12;;;;;;;4.15;1.13;;;;;;;15.97;100.00;102396.31;5093097;28;20053;-84
2022/07/09 05:18:39;;;;;;;3.92;1.20;;;;;;;15.98;100.00;102390.13;5093206;28;20126;-85
2022/07/09 05:21:06;;;;;;;5.28;1.00;;;;;;;16.19;100.00;102410.53;5097695;28;20062;-85
2022/07/09 05:23:33;;;;;;;2.92;0.93;;;;;;;16.14;100.00;102392.19;5097476;28;20047;-84
2022/07/09 05:26:00;;;;;;;1.52;0.90;;;;;;;16.42;100.00;102403.56;5096233;28;20413;-84
2022/07/09 05:28:27;;;;;;;3.50;0.90;;;;;;;16.18;100.00;102394.72;5091579;28;20075;-84
2022/07/09 05:30:54;;;;;;;4.75;1.27;;;;;;;15.97;100.00;102359.34;5103610;28;20130;-84
2022/07/09 05:33:41;;;;;;;3.67;1.05;;;;;;;15.98;100.00;102369.00;5106114;28;20047;-82
2022/07/09 05:36:15;;;;;;;2.17;0.80;;;;;;;16.11;100.00;102357.06;5124019;28;20050;-82
2022/07/09 05:38:42;;;;;;;3.00;1.00;;;;;;;16.41;100.00;102388.63;5124727;28;20079;-84
2022/07/09 05:41:10;;;;;;;4.45;1.00;;;;;;;16.36;100.00;102394.09;5106208;28;20111;-82
2022/07/09 05:43:37;;;;;;;2.55;0.80;;;;;;;15.99;100.00;102347.81;5105953;28;20050;-84
2022/07/09 05:46:04;;;;;;;3.65;1.00;;;;;;;16.06;100.00;102380.13;5097837;28;20071;-84
2022/07/09 05:48:31;;;;;;;4.20;1.20;;;;;;;16.38;100.00;102415.16;5104450;28;20050;-81
2022/07/09 05:50:58;;;;;;;4.50;1.15;;;;;;;16.37;100.00;102431.94;5104515;28;20048;-84
2022/07/09 05:53:25;;;;;;;4.28;1.02;;;;;;;16.33;100.00;102400.34;5101112;28;20154;-84
2022/07/09 05:55:52;;;;;;;3.95;1.20;;;;;;;16.44;100.00;102431.66;5124996;27;20043;-85
2022/07/09 05:58:19;;;;;;;3.10;1.23;;;;;;;16.62;100.00;102414.28;5096011;28;20040;-84
2022/07/09 06:00:46;;;;;;;2.38;0.85;;;;;;;16.44;100.00;102405.22;5105229;28;20408;-83
2022/07/09 06:03:14;;;;;;;5.78;1.33;;;;;;;16.38;100.00;102386.97;5129852;27;20042;-84
2022/07/09 06:05:41;;;;;;;5.63;1.20;;;;;;;16.49;99.65;102358.34;5134799;27;20481;-84
2022/07/09 06:08:09;;;;;;;3.90;0.90;;;;;;;16.54;100.00;102395.22;5110440;28;20051;-84
2022/07/09 06:10:36;;;;;;;7.03;0.98;;;;;;;16.83;100.00;102425.00;5120415;27;20077;-85
2022/07/09 06:13:04;;;;;;;4.20;1.10;;;;;;;16.84;98.96;102421.47;5108240;27;20047;-85
2022/07/09 06:15:31;;;;;;;3.75;1.13;;;;;;;16.57;97.55;102373.91;5106166;27;20053;-85
2022/07/09 06:17:58;;;;;;;3.22;1.00;;;;;;;16.75;95.94;102382.09;5112963;28;20071;-85
2022/07/09 06:20:25;;;;;;;1.52;0.80;;;;;;;16.82;96.94;102394.16;5111428;27;20067;-84
2022/07/09 06:22:53;;;;;;;4.70;1.27;;;;;;;16.98;97.08;102418.28;5101691;28;20130;-85
2022/07/09 06:25:21;;;;;;;5.60;1.17;;;;;;;17.02;95.96;102438.44;5118470;28;20560;-84
2022/07/09 06:27:48;;;;;;;3.05;1.00;;;;;;;16.84;94.73;102421.47;5101492;28;20072;-85
2022/07/09 06:30:20;;;;;;;2.72;0.85;;;;;;;17.03;92.49;102433.09;5129843;27;20395;-84
2022/07/09 06:32:47;;;;;;;4.30;1.10;;;;;;;17.04;92.40;102412.78;5131501;27;20063;-85
2022/07/09 06:35:14;;;;;;;3.75;1.00;;;;;;;17.12;92.13;102407.19;5125176;27;20142;-84
2022/07/09 06:37:41;;;;;;;5.60;1.17;;;;;;;16.87;91.32;102394.88;5125378;27;20532;-85
2022/07/09 06:40:21;;;;;;;3.28;1.00;;;;;;;16.66;93.48;102389.47;5124492;27;20098;-85
2022/07/09 06:42:49;;;;;;;5.07;1.00;;;;;;;16.95;94.42;102414.00;5108770;28;20146;-85
2022/07/09 06:45:18;;;;;;;3.53;0.95;;;;;;;17.14;94.52;102411.53;5107763;28;20075;-85
2022/07/09 06:47:45;;;;;;;3.03;0.90;;;;;;;17.32;92.72;102419.66;5125817;28;20049;-85
2022/07/09 06:50:13;;;;;;;2.70;0.85;;;;;;;17.30;92.90;102380.00;5089917;28;20142;-86
2022/07/09 06:52:39;;;;;;;3.00;1.08;;;;;;;17.63;89.74;102427.22;5095591;28;20146;-84
2022/07/09 06:55:08;;;;;;;3.47;1.30;;;;;;;17.14;87.69;102397.41;5111258;27;20063;-84
2022/07/09 06:57:35;;;;;;;2.53;1.00;;;;;;;17.02;90.06;102434.00;5116653;28;20094;-85
2022/07/09 07:00:06;;;;;;;3.95;1.00;;;;;;;17.39;89.42;102416.72;5126070;28;20078;-85
2022/07/09 07:02:34;;;;;;;4.07;1.00;;;;;;;17.29;89.54;102425.94;5129550;27;20079;-84
2022/07/09 07:05:10;;;;;;;2.72;1.00;;;;;;;17.04;90.88;102404.84;5123521;28;20449;-85
2022/07/09 07:07:43;;;;;;;4.95;0.90;;;;;;;17.39;89.83;102440.53;5101089;28;20044;-85
2022/07/09 07:10:11;;;;;;;2.83;0.90;;;;;;;16.71;94.53;102426.31;5105782;28;20103;-85
2022/07/09 07:12:37;;;;;;;4.72;1.23;;;;;;;16.72;92.96;102396.31;5096596;28;20043;-84
2022/07/09 07:15:05;;;;;;;3.50;1.10;;;;;;;17.07;92.02;102400.28;5105743;28;20126;-84
2022/07/09 07:17:33;;;;;;;5.93;1.20;;;;;;;17.30;89.72;102413.53;5103823;28;20060;-84
2022/07/09 07:20:00;;;;;;;3.97;1.23;;;;;;;17.67;89.85;102457.09;5099977;28;20075;-85
2022/07/09 07:22:27;;;;;;;3.53;1.40;;;;;;;17.37;89.20;102407.09;5110900;28;20131;-85
2022/07/09 07:24:54;;;;;;;4.40;1.17;;;;;;;17.37;88.88;102407.97;5119662;28;20387;-85
2022/07/09 07:27:21;;;;;;;4.13;0.98;;;;;;;17.61;88.58;102432.59;5092552;28;20054;-83
2022/07/09 07:29:48;;;;;;;4.45;1.38;;;;;;;17.58;90.71;102448.63;5108107;28;20111;-84
2022/07/09 07:32:14;;;;;;;4.25;1.10;;;;;;;17.74;89.68;102456.81;5097466;27;20496;-84
2022/07/09 07:34:41;;;;;;;4.53;1.30;;;;;;;17.75;89.04;102444.41;5110719;28;20042;-85
2022/07/09 07:37:08;;;;;;;3.42;1.00;;;;;;;17.74;86.33;102416.19;5119824;28;20054;-85
2022/07/09 07:39:35;;;;;;;2.58;0.93;;;;;;;18.03;87.64;102428.28;5100410;28;20048;-85
2022/07/09 07:42:02;;;;;;;4.85;1.23;;;;;;;18.03;85.51;102454.78;5111148;28;20413;-84
2022/07/09 07:44:29;;;;;;;2.72;0.93;;;;;;;17.98;85.52;102441.72;5116361;28;20047;-85
2022/07/09 07:46:55;;;;;;;4.25;1.02;;;;;;;17.32;86.45;102411.72;5099209;28;20079;-85
2022/07/09 07:49:22;;;;;;;5.25;1.20;;;;;;;17.78;87.08;102460.19;5086595;28;20482;-84
2022/07/09 07:51:49;;;;;;;3.45;1.05;;;;;;;17.80;87.41;102442.44;5101801;27;20051;-84
2022/07/09 07:54:16;;;;;;;2.65;1.00;;;;;;;17.98;85.55;102441.72;5120775;27;20047;-84
2022/07/09 07:56:43;;;;;;;3.33;1.00;;;;;;;18.52;85.45;102423.50;5106219;28;20506;-84
2022/07/09 07:59:09;;;;;;;3.30;1.05;;;;;;;18.90;80.85;102434.19;5084890;28;20058;-84
2022/07/09 08:01:36;;;;;;;8.35;1.45;;;;;;;18.57;80.66;102418.88;5101001;28;20052;-85
2022/07/09 08:04:03;;;;;;;3.55;0.93;;;;;;;19.36;79.88;102444.47;5100799;28;20058;-85
2022/07/09 08:06:30;;;;;;;2.72;1.10;;;;;;;20.41;74.17;102433.97;5095225;28;20124;-85
2022/07/09 08:08:57;;;;;;;5.30;1.00;;;;;;;20.97;71.17;102443.41;5097104;28;20043;-85
2022/07/09 08:11:24;;;;;;;3.55;0.90;;;;;;;20.98;68.41;102402.56;5082800;28;20048;-85
2022/07/09 08:13:51;;;;;;;2.60;0.90;;;;;;;21.72;68.95;102441.03;5110794;28;20058;-85
2022/07/09 08:16:18;;;;;;;4.53;1.00;;;;;;;21.78;65.11;102448.69;5111536;28;20062;-86
2022/07/09 08:18:46;;;;;;;2.65;0.80;;;;;;;21.84;67.64;102414.59;5097421;28;20066;-85
2022/07/09 08:21:14;;;;;;;3.28;0.98;;;;;;;22.17;63.27;102431.28;5116702;28;20051;-85
2022/07/09 08:23:56;;;;;;;3.28;1.00;;;;;;;20.95;65.30;102434.66;5104698;28;20086;-86
2022/07/09 08:26:25;;;;;;;3.25;1.02;;;;;;;20.58;65.67;102419.78;5097677;28;20093;-85
2022/07/09 08:28:53;;;;;;;4.00;0.93;;;;;;;20.86;65.49;102411.22;5105682;28;20062;-87
2022/07/09 08:31:20;;;;;;;5.63;0.85;;;;;;;21.30;62.97;102404.34;5107423;28;20047;-85
2022/07/09 08:33:49;;;;;;;4.45;0.82;;;;;;;21.39;62.96;102449.97;5079353;28;20537;-85
2022/07/09 08:36:16;;;;;;;4.18;1.08;;;;;;;21.19;62.78;102447.56;5113606;28;20058;-85
2022/07/09 08:38:43;;;;;;;4.57;1.02;;;;;;;20.92;64.40;102412.66;5108808;28;20054;-85
2022/07/09 08:41:12;;;;;;;2.17;0.90;;;;;;;21.38;62.37;102394.09;5116591;28;20049;-85
2022/07/09 08:43:39;;;;;;;8.63;1.25;;;;;;;20.97;60.94;102376.84;5114518;28;20044;-86
2022/07/09 08:46:06;;;;;;;3.90;1.00;;;;;;;21.81;61.37;102434.28;5090797;28;20097;-86
2022/07/09 08:48:35;;;;;;;5.68;1.20;;;;;;;21.87;60.95;102438.41;5106447;28;20052;-85
2022/07/09 08:51:04;;;;;;;4.40;0.90;;;;;;;21.61;60.45;102414.13;5098337;28;20051;-85
2022/07/09 08:53:34;;;;;;;4.40;1.00;;;;;;;21.17;60.91;102391.72;5102630;28;20047;-85
2022/07/09 08:56:00;;;;;;;5.00;1.27;;;;;;;21.29;62.60;102411.47;5115140;28;20051;-85
2022/07/09 08:58:28;;;;;;;3.50;1.00;;;;;;;20.68;63.56;102413.03;5120875;28;20065;-85
2022/07/09 09:00:57;;;;;;;2.58;0.80;;;;;;;20.98;63.31;102393.69;5121674;28;20052;-84
2022/07/09 09:03:25;;;;;;;2.92;0.82;;;;;;;21.77;62.54;102412.28;5099597;28;20051;-85
2022/07/09 09:06:05;;;;;;;5.72;1.55;;;;;;;21.21;62.25;102430.56;5105504;28;20062;-84
2022/07/09 09:08:45;;;;;;;4.75;1.00;;;;;;;21.34;61.68;102382.78;5115842;28;20052;-85
2022/07/09 09:11:20;;;;;;;4.45;1.02;;;;;;;21.60;60.31;102418.63;5119008;28;20122;-84
2022/07/09 09:13:48;;;;;;;3.88;1.05;;;;;;;21.31;60.50;102385.59;5100482;28;20677;-85
2022/07/09 09:16:16;;;;;;;3.15;1.02;;;;;;;21.58;60.72;102417.84;5091880;28;20174;-84
2022/07/09 09:18:48;;;;;;;2.85;0.90;;;;;;;21.86;59.30;102404.72;5110837;28;20051;-84
2022/07/09 09:21:18;;;;;;;4.07;1.00;;;;;;;22.20;61.73;102403.53;5091576;28;20461;-84
2022/07/09 09:23:52;;;;;;;3.10;1.00;;;;;;;22.23;60.16;102416.69;5122673;28;20073;-85
2022/07/09 09:26:19;;;;;;;4.45;1.08;;;;;;;22.19;58.92;102413.34;5114853;28;20054;-85
2022/07/09 09:28:53;;;;;;;5.88;1.10;;;;;;;22.02;60.61;102426.84;5100573;28;20074;-84
2022/07/09 09:31:24;;;;;;;4.88;1.05;;;;;;;21.96;60.19;102422.75;5082925;28;20131;-84
2022/07/09 09:33:55;;;;;;;4.85;0.90;;;;;;;21.80;59.09;102419.25;5093844;28;20075;-84
2022/07/09 09:36:33;;;;;;;3.05;1.13;;;;;;;22.18;59.68;102418.78;5100912;28;20155;-85
2022/07/09 09:39:18;;;;;;;3.78;1.00;;;;;;;22.68;59.30;102414.00;5095789;28;20048;-85
2022/07/09 09:41:56;;;;;;;2.42;0.77;;;;;;;22.68;58.36;102414.88;5092536;28;20043;-84
2022/07/09 09:44:26;;;;;;;3.35;0.80;;;;;;;22.25;59.03;102369.44;5110666;28;20450;-85
2022/07/09 09:46:54;;;;;;;3.72;0.98;;;;;;;22.20;58.62;102374.19;5086004;28;20444;-85
2022/07/09 09:49:21;;;;;;;3.08;0.88;;;;;;;22.26;59.33;102402.34;5109556;28;20130;-84
2022/07/09 09:51:56;;;;;;;7.63;1.27;;;;;;;21.95;57.42;102444.16;5093415;28;20405;-85
2022/07/09 09:54:23;;;;;;;5.28;0.90;;;;;;;21.59;60.46;102403.56;5100695;28;20094;-84
2022/07/09 09:56:50;;;;;;;4.75;1.10;;;;;;;21.79;60.26;102409.53;5118732;28;20405;-84
2022/07/09 09:59:17;;;;;;;2.97;1.00;;;;;;;21.80;59.50;102414.78;5099213;28;20050;-85
2022/07/09 10:01:45;;;;;;;2.53;0.73;;;;;;;21.95;59.68;102418.34;5107769;28;20051;-85
2022/07/09 10:04:14;;;;;;;4.47;1.00;;;;;;;21.87;60.59;102412.63;5113419;28;20051;-84
2022/07/09 10:06:43;;;;;;;3.70;0.98;;;;;;;22.03;59.42;102423.25;5098791;28;20762;-83
2022/07/09 10:09:12;;;;;;;6.93;1.30;;;;;;;22.10;59.80;102399.72;5116773;28;20059;-84
2022/07/09 10:11:43;;;;;;;4.70;1.08;;;;;;;22.54;59.29;102441.53;5097401;28;20078;-84
2022/07/09 10:14:23;;;;;;;6.10;1.00;;;;;;;22.42;58.53;102421.81;5113641;28;20044;-82
2022/07/09 10:16:50;;;;;;;4.20;0.90;;;;;;;22.13;59.45;102412.84;5098979;28;20489;-84
2022/07/09 10:19:29;;;;;;;5.95;1.50;;;;;;;22.31;59.00;102394.91;5095425;28;20075;-84
2022/07/09 10:22:00;;;;;;;2.35;0.82;;;;;;;23.36;56.24;102421.25;5089647;28;20782;-83
2022/07/09 10:24:29;;;;;;;5.90;1.42;;;;;;;23.31;56.38;102428.72;5098830;28;20035;-84
2022/07/09 10:27:07;;;;;;;4.05;1.17;;;;;;;22.66;59.23;102446.13;5096922;28;20047;-84
2022/07/09 10:29:36;;;;;;;3.53;1.00;;;;;;;22.41;57.15;102414.75;5092724;28;20405;-83
2022/07/09 10:32:04;;;;;;;3.65;1.05;;;;;;;22.06;58.14;102417.72;5105484;28;20142;-84
2022/07/09 10:34:30;;;;;;;4.30;1.00;;;;;;;22.46;57.72;102422.47;5098335;28;20052;-84
2022/07/09 10:37:03;;;;;;;4.63;1.20;;;;;;;22.84;57.38;102414.75;5084873;28;20044;-84
2022/07/09 10:39:31;;;;;;;5.38;1.08;;;;;;;22.39;57.71;102384.63;5093955;28;20060;-84
2022/07/09 10:42:05;;;;;;;3.70;0.82;;;;;;;22.44;55.17;102411.06;5090426;28;20047;-84
2022/07/09 10:44:40;;;;;;;3.05;1.02;;;;;;;22.50;55.75;102432.84;5095680;28;20431;-84
2022/07/09 10:47:07;;;;;;;3.63;1.10;;;;;;;22.39;56.12;102408.66;5117726;27;20408;-85
2022/07/09 10:49:35;;;;;;;5.35;1.00;;;;;;;22.17;55.71;102380.59;5087291;28;20086;-84
2022/07/09 10:52:04;;;;;;;3.25;1.00;;;;;;;22.45;55.35;102396.72;5091192;28;20062;-83
2022/07/09 10:54:33;;;;;;;3.28;0.95;;;;;;;22.28;56.38;102385.28;5095369;28;20043;-85
2022/07/09 10:57:00;;;;;;;4.93;0.90;;;;;;;22.83;56.57;102433.56;5113683;28;20134;-84
2022/07/09 10:59:27;;;;;;;4.32;1.10;;;;;;;22.55;56.10;102408.56;5094241;28;20389;-84
2022/07/09 11:01:55;;;;;;;5.00;1.10;;;;;;;22.11;56.59;102386.28;5092636;27;20058;-84
2022/07/09 11:04:30;;;;;;;4.43;0.88;;;;;;;22.47;57.48;102424.19;5105263;28;20059;-85
2022/07/09 11:06:58;;;;;;;2.88;1.00;;;;;;;22.21;57.14;102417.75;5116757;28;20382;-85
2022/07/09 11:09:30;;;;;;;2.67;0.88;;;;;;;22.05;58.24;102407.16;5103313;27;20076;-85
2022/07/09 11:11:57;;;;;;;4.13;0.90;;;;;;;22.39;57.31;102379.31;5104074;28;20051;-85
2022/07/09 11:14:24;;;;;;;3.67;0.90;;;;;;;22.35;57.96;102407.13;5113279;27;20047;-85
2022/07/09 11:16:58;;;;;;;5.95;1.10;;;;;;;22.62;58.37;102436.59;5096255;28;20103;-85
2022/07/09 11:19:25;;;;;;;5.22;1.08;;;;;;;21.90;58.40;102409.78;5119958;28;20047;-87
2022/07/09 11:22:02;;;;;;;2.53;0.88;;;;;;;22.08;57.63;102431.81;5085699;28;20076;-85
2022/07/09 11:24:29;;;;;;;6.65;1.23;;;;;;;22.25;58.46;102381.94;5117837;27;20528;-85
2022/07/09 11:27:01;;;;;;;3.22;0.95;;;;;;;22.33;56.66;102411.72;5111951;27;20400;-83